Time;durP1;ratioP1;P1;durP2;ratioP2;P2;SDS_P1;SDS_P2;PMS_P1;PMS_P2;Temp;Humidity;BMP_temperature;BMP_pressure;BME280_temperature;BME280_humidity;BME280_pressure;Samples;Min_cycle;Max_cycle;Signal;HPM_P1;HPM_P2
2023/09/08 00:00:56;;;;;;;5.60;1.40;;;;;;;21.97;32.33;101316.56;108025;1281;21991;-59
2023/09/08 00:03:22;;;;;;;3.50;1.70;;;;;;;21.89;32.25;101314.98;108107;1288;21987;-57
2023/09/08 00:05:48;;;;;;;6.40;1.60;;;;;;;21.82;32.29;101316.14;108045;1288;21956;-60
2023/09/08 00:08:13;;;;;;;4.30;1.60;;;;;;;21.76;32.25;101316.25;108047;1278;21989;-58
2023/09/08 00:10:39;;;;;;;3.00;1.60;;;;;;;21.68;32.32;101316.06;108076;1288;22181;-70
2023/09/08 00:13:04;;;;;;;3.00;1.30;;;;;;;21.61;32.34;101315.82;107988;1286;21998;-57
2023/09/08 00:15:30;;;;;;;6.70;1.80;;;;;;;21.56;32.53;101314.23;108024;1280;21994;-58
2023/09/08 00:17:56;;;;;;;4.80;1.30;;;;;;;21.52;32.56;101311.73;108030;1288;22049;-70
2023/09/08 00:20:22;;;;;;;3.50;1.40;;;;;;;21.50;32.64;101312.14;108012;1287;21989;-59
2023/09/08 00:22:48;;;;;;;5.00;1.70;;;;;;;21.50;32.59;101311.98;108011;1288;21990;-58
2023/09/08 00:25:13;;;;;;;5.00;1.70;;;;;;;21.47;32.68;101312.45;107990;1283;21987;-71
2023/09/08 00:27:39;;;;;;;4.20;1.70;;;;;;;21.44;32.80;101315.45;108000;1287;21993;-58
2023/09/08 00:30:06;;;;;;;3.80;1.50;;;;;;;21.40;32.77;101315.08;107949;1288;21993;-57
2023/09/08 00:32:31;;;;;;;6.40;1.70;;;;;;;21.35;32.89;101314.77;108038;1282;22008;-71
2023/09/08 00:34:57;;;;;;;5.30;1.80;;;;;;;21.29;32.95;101314.14;107992;1288;21991;-67
2023/09/08 00:37:22;;;;;;;3.90;1.60;;;;;;;21.32;32.84;101313.85;108001;1288;23128;-71
2023/09/08 00:39:48;;;;;;;4.20;2.00;;;;;;;21.30;32.75;101317.14;107989;1283;22005;-71
2023/09/08 00:42:13;;;;;;;5.80;1.30;;;;;;;21.28;32.81;101316.32;108007;1288;22462;-71
2023/09/08 00:44:39;;;;;;;4.60;1.40;;;;;;;21.27;32.94;101319.23;107970;1283;22495;-71
2023/09/08 00:47:05;;;;;;;4.60;1.80;;;;;;;21.27;32.99;101317.25;107994;1286;22461;-58
2023/09/08 00:49:31;;;;;;;4.60;1.60;;;;;;;21.27;32.93;101317.96;108030;1286;21987;-58
2023/09/08 00:51:56;;;;;;;7.40;1.70;;;;;;;21.28;32.92;101317.77;108009;1288;22007;-71
2023/09/08 00:54:21;;;;;;;4.90;1.80;;;;;;;21.28;32.95;101313.11;108001;1286;23446;-58
2023/09/08 00:56:49;;;;;;;6.10;1.40;;;;;;;21.27;32.98;101309.41;107826;1288;21992;-58
2023/09/08 00:59:14;;;;;;;7.70;1.60;;;;;;;21.26;33.00;101308.72;107987;1280;21988;-58
2023/09/08 01:01:40;;;;;;;4.30;1.40;;;;;;;21.26;32.99;101310.35;107788;1286;21986;-71
2023/09/08 01:04:05;;;;;;;4.50;1.60;;;;;;;21.25;32.93;101310.58;108013;1288;21992;-58
2023/09/08 01:06:32;;;;;;;6.00;1.60;;;;;;;21.22;32.96;101307.62;108006;1286;21988;-59
2023/09/08 01:08:58;;;;;;;4.40;1.30;;;;;;;21.22;32.96;101311.59;107247;1281;1002273;-72
2023/09/08 01:11:23;;;;;;;4.30;1.40;;;;;;;21.21;33.03;101315.53;107891;1288;21997;-60
2023/09/08 01:13:49;;;;;;;5.80;1.60;;;;;;;21.19;32.84;101312.38;107916;1287;21998;-72
2023/09/08 01:16:14;;;;;;;5.00;1.70;;;;;;;21.17;32.92;101314.98;107977;1287;22005;-72
2023/09/08 01:18:40;;;;;;;5.60;1.80;;;;;;;21.15;33.04;101315.63;108025;1288;21993;-58
2023/09/08 01:21:15;;;;;;;4.80;1.70;;;;;;;21.11;32.98;101312.20;107801;1286;21988;-71
2023/09/08 01:23:46;;;;;;;5.70;1.60;;;;;;;21.09;33.01;101313.71;107998;1287;22000;-71
2023/09/08 01:26:16;;;;;;;6.20;1.60;;;;;;;21.05;33.05;101315.82;108006;1288;21984;-71
2023/09/08 01:28:41;;;;;;;4.90;1.70;;;;;;;21.01;33.12;101313.69;108096;1283;21993;-72
2023/09/08 01:31:07;;;;;;;7.10;1.70;;;;;;;20.96;33.11;101310.31;108030;1288;22022;-72
2023/09/08 01:33:33;;;;;;;3.80;1.50;;;;;;;20.91;33.12;101310.17;108012;1286;22247;-72
2023/09/08 01:35:58;;;;;;;4.90;1.50;;;;;;;20.87;33.22;101314.24;107784;1288;22008;-59
2023/09/08 01:38:24;;;;;;;4.00;1.50;;;;;;;20.84;33.11;101311.52;107791;1286;22172;-59
2023/09/08 01:40:50;;;;;;;6.00;2.30;;;;;;;20.79;33.10;101308.15;108067;1288;21992;-72
2023/09/08 01:43:16;;;;;;;7.90;1.50;;;;;;;20.72;33.10;101307.15;107885;1288;23615;-59
2023/09/08 01:45:41;;;;;;;7.00;1.50;;;;;;;20.65;33.15;101302.82;107837;1289;22004;-58
2023/09/08 01:48:07;;;;;;;3.70;1.40;;;;;;;20.59;33.16;101303.57;107894;1289;21999;-72
2023/09/08 01:50:32;;;;;;;6.90;1.40;;;;;;;20.53;33.23;101306.14;107840;1283;22040;-58
2023/09/08 01:52:58;;;;;;;6.00;1.70;;;;;;;20.45;33.19;101305.35;107883;1283;22024;-73
2023/09/08 01:55:23;;;;;;;3.20;1.40;;;;;;;20.36;33.20;101305.70;107888;1288;22012;-59
2023/09/08 01:57:49;;;;;;;7.20;1.70;;;;;;;20.26;33.25;101303.94;108034;1288;21993;-58
2023/09/08 02:00:15;;;;;;;6.80;1.70;;;;;;;20.18;33.28;101305.83;108027;1287;21990;-58
2023/09/08 02:02:41;;;;;;;3.10;1.50;;;;;;;20.10;33.23;101308.64;108027;1288;21984;-73
2023/09/08 02:05:06;;;;;;;6.40;1.60;;;;;;;19.99;33.40;101310.11;108033;1284;23648;-60
2023/09/08 02:07:32;;;;;;;4.80;1.60;;;;;;;19.93;33.49;101309.82;108051;1284;21989;-60
2023/09/08 02:09:58;;;;;;;9.20;2.30;;;;;;;19.89;33.57;101311.36;108003;1288;22454;-57
2023/09/08 02:12:23;;;;;;;3.90;2.00;;;;;;;19.85;33.67;101310.23;108010;1283;22000;-72
2023/09/08 02:14:49;;;;;;;5.40;1.60;;;;;;;19.79;33.63;101309.02;108019;1287;23083;-57
2023/09/08 02:17:15;;;;;;;3.80;1.50;;;;;;;19.73;33.61;101307.09;107993;1286;22457;-72
2023/09/08 02:19:40;;;;;;;4.80;1.80;;;;;;;19.65;33.63;101307.38;107988;1283;22029;-70
2023/09/08 02:22:06;;;;;;;9.70;1.90;;;;;;;19.55;33.67;101305.41;108026;1283;22470;-58
2023/09/08 02:24:31;;;;;;;3.40;1.60;;;;;;;19.46;33.72;101308.40;108047;1288;22458;-58
2023/09/08 02:26:57;;;;;;;9.30;2.60;;;;;;;19.32;33.73;101312.06;108078;1288;21987;-68
2023/09/08 02:29:22;;;;;;;4.50;1.60;;;;;;;19.14;33.73;101311.07;107239;1283;1002290;-58
2023/09/08 02:31:48;;;;;;;4.10;1.80;;;;;;;18.94;33.78;101311.38;108031;1287;23660;-73
2023/09/08 02:34:14;;;;;;;6.80;1.60;;;;;;;18.73;34.00;101306.34;107987;1287;22000;-73
2023/09/08 02:36:40;;;;;;;3.60;1.80;;;;;;;18.54;34.01;101309.22;108049;1288;24194;-58
2023/09/08 02:39:06;;;;;;;5.50;1.70;;;;;;;18.38;34.11;101306.52;108019;1283;22027;-58
2023/09/08 02:41:32;;;;;;;4.70;1.50;;;;;;;18.24;34.20;101303.20;107996;1277;21990;-59
2023/09/08 02:43:58;;;;;;;5.20;1.50;;;;;;;18.11;34.30;101301.80;108025;1288;22002;-58
2023/09/08 02:46:23;;;;;;;5.50;1.90;;;;;;;17.99;34.52;101303.18;107954;1286;21990;-74
2023/09/08 02:48:49;;;;;;;5.90;1.50;;;;;;;17.92;34.67;101306.20;107976;1286;21994;-59
2023/09/08 02:51:14;;;;;;;8.00;1.80;;;;;;;17.90;34.77;101307.48;107988;1283;24064;-73
2023/09/08 02:53:40;;;;;;;5.30;2.00;;;;;;;17.91;34.70;101304.80;107955;1288;22166;-74
2023/09/08 02:56:05;;;;;;;6.20;1.60;;;;;;;17.90;34.72;101302.71;107910;1280;21989;-74
2023/09/08 02:58:33;;;;;;;3.70;1.60;;;;;;;17.85;34.96;101298.93;107974;1288;21995;-58
2023/09/08 03:01:10;;;;;;;4.40;1.70;;;;;;;17.82;34.97;101299.02;107977;1286;21986;-59
2023/09/08 03:03:37;;;;;;;5.30;2.00;;;;;;;17.83;35.03;101301.30;108041;1288;21989;-74
2023/09/08 03:06:03;;;;;;;8.60;3.00;;;;;;;17.83;35.21;101299.02;108019;1286;24083;-73
2023/09/08 03:08:29;;;;;;;6.00;2.00;;;;;;;17.85;35.29;101303.57;108000;1287;23631;-73
2023/09/08 03:10:58;;;;;;;5.10;1.50;;;;;;;17.89;35.38;101303.98;107667;1288;23497;-59
2023/09/08 03:13:25;;;;;;;8.60;2.10;;;;;;;17.92;35.47;101305.31;107744;1288;22009;-72
2023/09/08 03:15:52;;;;;;;7.90;1.90;;;;;;;17.95;35.50;101303.09;107965;1286;24399;-59
2023/09/08 03:18:17;;;;;;;9.90;2.50;;;;;;;17.97;35.47;101300.20;108022;1286;22001;-58
2023/09/08 03:20:43;;;;;;;7.00;1.90;;;;;;;18.00;35.53;101302.48;108015;1288;22009;-58
2023/09/08 03:23:09;;;;;;;11.90;2.70;;;;;;;18.01;35.58;101301.36;107974;1288;21993;-72
2023/09/08 03:25:34;;;;;;;2.60;1.30;;;;;;;18.03;35.58;101303.99;107982;1288;21990;-65
2023/09/08 03:28:00;;;;;;;6.50;1.80;;;;;;;18.05;35.61;101311.02;108026;1288;22004;-72
2023/09/08 03:30:25;;;;;;;6.70;1.50;;;;;;;18.05;35.73;101314.58;108054;1283;23660;-58
2023/09/08 03:32:51;;;;;;;13.70;1.80;;;;;;;18.05;35.70;101312.27;108081;1288;21992;-73
2023/09/08 03:35:17;;;;;;;6.10;2.10;;;;;;;18.07;35.68;101311.67;107971;1283;21981;-73
2023/09/08 03:37:42;;;;;;;5.70;1.70;;;;;;;18.09;35.60;101304.16;107911;1280;21992;-58
2023/09/08 03:40:09;;;;;;;14.20;2.40;;;;;;;18.10;35.60;101304.86;107986;1277;21992;-58
2023/09/08 03:42:34;;;;;;;11.80;2.60;;;;;;;18.10;35.60;101305.40;108053;1283;22202;-72
2023/09/08 03:45:00;;;;;;;14.00;2.60;;;;;;;18.08;35.62;101307.04;107992;1286;21992;-58
2023/09/08 03:47:26;;;;;;;6.30;1.80;;;;;;;18.08;35.70;101309.17;107870;1280;21995;-58
2023/09/08 03:49:51;;;;;;;12.90;2.40;;;;;;;18.06;35.81;101313.30;107846;1283;21987;-57
2023/09/08 03:52:17;;;;;;;6.60;1.90;;;;;;;18.06;35.75;101312.24;107852;1283;21989;-58
2023/09/08 03:54:42;;;;;;;7.70;2.30;;;;;;;18.05;35.92;101311.55;107867;1283;21995;-58
2023/09/08 03:57:08;;;;;;;6.70;2.00;;;;;;;18.06;36.03;101316.85;107852;1289;21992;-58
2023/09/08 03:59:34;;;;;;;7.10;1.70;;;;;;;18.13;35.99;101313.45;108008;1288;22000;-59
2023/09/08 04:02:01;;;;;;;7.20;2.10;;;;;;;18.15;36.07;101316.24;108055;1280;21991;-72
2023/09/08 04:04:26;;;;;;;6.30;1.90;;;;;;;18.21;36.08;101317.67;108051;1288;21996;-58
2023/09/08 04:06:52;;;;;;;9.90;2.10;;;;;;;18.22;36.22;101320.33;108028;1286;21994;-59
2023/09/08 04:09:17;;;;;;;7.60;1.60;;;;;;;18.27;36.19;101324.06;108049;1284;21994;-59
2023/09/08 04:11:43;;;;;;;7.00;2.00;;;;;;;18.37;36.16;101325.02;108036;1283;22024;-70
2023/09/08 04:14:09;;;;;;;8.50;2.10;;;;;;;18.47;36.41;101324.73;108097;1283;22027;-63
2023/09/08 04:16:34;;;;;;;8.00;1.90;;;;;;;18.82;36.66;101321.16;108058;1283;21989;-57
2023/09/08 04:19:00;;;;;;;9.40;1.70;;;;;;;19.21;36.45;101319.21;108041;1288;22002;-58
2023/09/08 04:21:25;;;;;;;10.90;2.10;;;;;;;19.53;36.15;101317.80;108055;1288;21999;-72
2023/09/08 04:23:51;;;;;;;35.60;6.50;;;;;;;19.79;36.02;101319.38;108061;1286;22005;-58
2023/09/08 04:26:16;;;;;;;44.40;8.10;;;;;;;20.04;35.80;101317.23;108060;1288;21995;-58
2023/09/08 04:28:42;;;;;;;31.50;7.30;;;;;;;20.25;35.59;101318.06;107867;1288;21984;-57
2023/09/08 04:31:07;;;;;;;12.30;4.70;;;;;;;20.42;35.42;101319.92;108028;1283;21999;-71
2023/09/08 04:33:33;;;;;;;9.90;3.30;;;;;;;20.52;35.20;101324.70;108076;1286;22007;-74
2023/09/08 04:35:58;;;;;;;12.40;2.10;;;;;;;20.48;34.99;101324.51;108064;1283;21992;-58
2023/09/08 04:38:24;;;;;;;15.50;2.90;;;;;;;20.36;34.98;101321.21;108027;1287;21989;-70
2023/09/08 04:40:49;;;;;;;14.40;2.40;;;;;;;20.23;35.16;101324.02;108132;1283;21991;-70
2023/09/08 04:43:15;;;;;;;12.70;2.20;;;;;;;20.16;35.32;101330.33;108055;1279;22199;-58
2023/09/08 04:45:41;;;;;;;10.40;1.70;;;;;;;20.12;35.28;101336.88;108030;1286;21996;-70
2023/09/08 04:48:06;;;;;;;6.80;2.10;;;;;;;20.11;35.23;101338.54;108051;1288;21990;-70
2023/09/08 04:50:32;;;;;;;6.10;1.70;;;;;;;20.10;35.19;101341.77;108051;1286;22455;-58
2023/09/08 04:52:58;;;;;;;6.80;1.60;;;;;;;20.13;35.22;101343.99;108059;1288;22010;-65
2023/09/08 04:55:24;;;;;;;6.80;2.00;;;;;;;20.14;35.21;101346.09;107968;1288;22005;-58
2023/09/08 04:57:49;;;;;;;5.90;2.00;;;;;;;20.18;35.27;101351.48;108055;1279;22045;-58
2023/09/08 05:00:16;;;;;;;5.00;1.70;;;;;;;20.27;35.36;101352.57;108044;1288;22040;-58
2023/09/08 05:02:41;;;;;;;5.30;1.80;;;;;;;20.36;35.22;101353.48;108103;1286;21987;-69
2023/09/08 05:05:07;;;;;;;9.10;1.90;;;;;;;20.44;35.21;101354.05;108050;1286;21996;-70
2023/09/08 05:07:33;;;;;;;4.50;1.90;;;;;;;20.56;35.32;101350.39;108050;1288;21987;-59
2023/09/08 05:09:59;;;;;;;9.30;2.10;;;;;;;20.70;35.30;101350.39;108020;1286;22098;-69
2023/09/08 05:12:24;;;;;;;8.60;2.30;;;;;;;20.83;35.10;101346.71;108060;1283;22030;-58
2023/09/08 05:14:55;;;;;;;6.00;2.00;;;;;;;20.94;35.02;101341.82;108043;1288;21989;-58
2023/09/08 05:17:21;;;;;;;9.00;1.90;;;;;;;21.05;34.95;101342.08;108061;1288;21986;-58
2023/09/08 05:19:47;;;;;;;4.20;1.90;;;;;;;21.18;34.90;101344.03;108029;1288;22064;-58
2023/09/08 05:22:12;;;;;;;6.80;2.60;;;;;;;21.31;34.81;101345.45;108083;1286;22048;-59
2023/09/08 05:24:38;;;;;;;8.80;2.40;;;;;;;21.44;34.73;101344.38;108041;1288;22037;-57
2023/09/08 05:27:04;;;;;;;8.60;2.50;;;;;;;21.56;34.66;101341.23;108087;1283;21988;-57
2023/09/08 05:29:30;;;;;;;7.20;2.20;;;;;;;21.68;34.57;101342.66;108079;1288;21997;-69
2023/09/08 05:31:55;;;;;;;4.80;1.70;;;;;;;21.80;34.36;101338.41;108042;1283;21993;-57
2023/09/08 05:34:21;;;;;;;6.30;2.00;;;;;;;21.91;34.40;101336.83;108066;1283;21990;-58
2023/09/08 05:36:47;;;;;;;6.40;2.10;;;;;;;22.05;34.27;101339.09;108062;1280;23752;-57
2023/09/08 05:39:14;;;;;;;8.50;2.30;;;;;;;22.19;34.28;101336.30;108069;1288;22037;-69
2023/09/08 05:41:40;;;;;;;7.00;2.20;;;;;;;22.37;34.24;101331.55;108089;1283;22003;-69
2023/09/08 05:44:05;;;;;;;7.30;2.50;;;;;;;22.54;34.03;101332.36;108072;1283;21996;-58
2023/09/08 05:46:31;;;;;;;9.80;2.40;;;;;;;22.69;33.89;101334.37;108046;1288;22250;-59
2023/09/08 05:48:57;;;;;;;8.20;2.30;;;;;;;22.84;33.88;101338.09;108021;1288;21994;-70
2023/09/08 05:51:22;;;;;;;13.50;2.90;;;;;;;23.02;33.64;101335.47;107789;1288;22030;-58
2023/09/08 05:53:48;;;;;;;8.40;2.20;;;;;;;23.16;33.69;101335.83;108036;1287;21958;-57
2023/09/08 05:56:13;;;;;;;9.00;2.00;;;;;;;23.33;33.66;101341.45;108033;1283;22001;-58
2023/09/08 05:58:39;;;;;;;5.90;2.60;;;;;;;23.49;33.56;101341.03;108090;1288;21994;-58
2023/09/08 06:01:05;;;;;;;7.30;2.30;;;;;;;23.63;33.49;101337.26;107996;1288;21983;-60
2023/09/08 06:03:30;;;;;;;9.90;2.40;;;;;;;23.80;33.36;101337.09;106579;1288;1002969;-69
2023/09/08 06:05:56;;;;;;;5.90;2.20;;;;;;;23.99;33.04;101334.69;107841;1288;21995;-58
2023/09/08 06:08:22;;;;;;;8.10;1.90;;;;;;;24.15;33.01;101338.13;108022;1288;21992;-70
2023/09/08 06:10:47;;;;;;;4.00;1.60;;;;;;;24.33;32.98;101333.40;108034;1284;22183;-69
2023/09/08 06:13:13;;;;;;;6.30;1.90;;;;;;;24.51;32.72;101332.73;107804;1287;21990;-69
2023/09/08 06:15:39;;;;;;;4.30;1.90;;;;;;;24.68;32.66;101335.77;108018;1286;21990;-69
2023/09/08 06:18:05;;;;;;;8.30;2.20;;;;;;;24.83;32.46;101338.38;107943;1288;21990;-58
2023/09/08 06:20:30;;;;;;;7.30;2.00;;;;;;;25.03;32.26;101338.64;108071;1278;21999;-68
2023/09/08 06:22:56;;;;;;;3.70;2.00;;;;;;;25.20;32.09;101340.70;108082;1280;22028;-58
2023/09/08 06:25:21;;;;;;;5.60;1.70;;;;;;;25.24;32.03;101342.06;107986;1283;21990;-59
2023/09/08 06:27:47;;;;;;;6.00;2.10;;;;;;;25.40;31.97;101340.82;108075;1285;21992;-68
2023/09/08 06:30:17;;;;;;;5.70;1.70;;;;;;;25.52;31.86;101336.34;108071;1288;22000;-58
2023/09/08 06:32:43;;;;;;;5.40;2.10;;;;;;;25.62;31.65;101338.05;108059;1283;22086;-59
2023/09/08 06:35:09;;;;;;;7.60;2.30;;;;;;;25.71;31.59;101338.40;108062;1283;22012;-68
2023/09/08 06:37:38;;;;;;;6.10;1.70;;;;;;;25.89;31.68;101341.44;107997;1288;22030;-67
2023/09/08 06:40:04;;;;;;;4.00;1.60;;;;;;;26.14;31.53;101338.17;108057;1286;21990;-68
2023/09/08 06:42:30;;;;;;;6.30;2.10;;;;;;;26.36;31.30;101334.59;108069;1286;23626;-68
2023/09/08 06:44:56;;;;;;;5.70;1.90;;;;;;;26.52;31.09;101332.67;108019;1288;21989;-68
2023/09/08 06:47:21;;;;;;;4.80;1.50;;;;;;;26.70;31.02;101334.96;107978;1283;22027;-57
2023/09/08 06:49:47;;;;;;;10.20;2.60;;;;;;;26.94;30.96;101334.33;107997;1288;22053;-70
2023/09/08 06:52:13;;;;;;;14.40;2.70;;;;;;;27.24;32.36;101338.63;108022;1288;21982;-58
2023/09/08 06:54:38;;;;;;;5.40;1.70;;;;;;;27.47;31.91;101339.95;108018;1283;21994;-70
2023/09/08 06:57:04;;;;;;;3.70;1.70;;;;;;;27.59;30.86;101342.55;108017;1283;22096;-69
2023/09/08 06:59:29;;;;;;;7.00;2.10;;;;;;;27.69;30.59;101345.66;108073;1288;21992;-58
2023/09/08 07:01:55;;;;;;;5.20;1.80;;;;;;;27.80;30.08;101343.65;108092;1286;22006;-59
2023/09/08 07:04:21;;;;;;;4.10;1.40;;;;;;;27.86;29.72;101347.77;108010;1283;21994;-69
2023/09/08 07:06:46;;;;;;;4.60;1.90;;;;;;;27.92;29.78;101342.09;108017;1288;23095;-59
2023/09/08 07:09:12;;;;;;;6.80;2.50;;;;;;;28.10;29.77;101341.40;108016;1279;21986;-69
2023/09/08 07:12:03;;;;;;;6.90;1.90;;;;;;;28.26;29.59;101340.78;108054;1288;21990;-58
2023/09/08 07:14:30;;;;;;;6.10;2.00;;;;;;;28.42;29.39;101341.45;107999;1283;22010;-60
2023/09/08 07:16:56;;;;;;;9.10;2.10;;;;;;;28.66;29.23;101340.08;108033;1286;21983;-58
2023/09/08 07:19:21;;;;;;;4.00;1.60;;;;;;;28.84;29.14;101338.98;108043;1283;21990;-69
2023/09/08 07:21:47;;;;;;;9.90;2.20;;;;;;;29.02;29.34;101335.30;108048;1286;22005;-58
2023/09/08 07:24:13;;;;;;;8.10;1.80;;;;;;;29.30;29.19;101331.02;108037;1283;21989;-58
2023/09/08 07:26:38;;;;;;;7.50;1.60;;;;;;;29.64;28.78;101329.85;108063;1288;21991;-66
2023/09/08 07:29:04;;;;;;;9.30;1.80;;;;;;;29.79;28.33;101326.66;108035;1288;22027;-58
2023/09/08 07:31:29;;;;;;;6.50;1.60;;;;;;;29.80;28.16;101327.88;108039;1288;22026;-69
2023/09/08 07:33:55;;;;;;;4.20;1.60;;;;;;;29.82;28.03;101330.41;108079;1283;22220;-69
2023/09/08 07:36:21;;;;;;;9.30;2.60;;;;;;;29.93;28.00;101333.98;108009;1288;22004;-57
2023/09/08 07:38:46;;;;;;;5.30;1.80;;;;;;;30.04;27.63;101324.77;108008;1283;21994;-58
2023/09/08 07:41:12;;;;;;;4.70;1.80;;;;;;;30.08;27.59;101324.09;107990;1288;21985;-59
2023/09/08 07:43:40;;;;;;;3.30;1.50;;;;;;;30.16;27.71;101325.29;108067;1288;21999;-68
2023/09/08 07:46:06;;;;;;;3.60;1.70;;;;;;;30.35;27.46;101319.02;107989;1283;21991;-57
2023/09/08 07:48:33;;;;;;;3.20;1.40;;;;;;;30.60;27.45;101317.01;108063;1288;21991;-58
2023/09/08 07:51:00;;;;;;;5.70;1.20;;;;;;;30.90;27.12;101316.73;108069;1288;22742;-59
2023/09/08 07:53:26;;;;;;;6.10;1.60;;;;;;;31.16;27.25;101315.96;107970;1288;22007;-68
2023/09/08 07:55:52;;;;;;;4.20;1.30;;;;;;;31.47;27.03;101312.08;108067;1288;22162;-59
2023/09/08 07:58:18;;;;;;;5.60;1.90;;;;;;;31.76;26.49;101309.12;107985;1288;23853;-70
2023/09/08 08:00:44;;;;;;;5.60;1.90;;;;;;;31.78;26.17;101308.05;107838;1286;22061;-59
2023/09/08 08:03:09;;;;;;;3.40;1.40;;;;;;;31.74;26.32;101309.77;107972;1288;22042;-70
2023/09/08 08:05:35;;;;;;;5.20;1.40;;;;;;;31.89;26.38;101308.16;108053;1288;21991;-61
2023/09/08 08:08:01;;;;;;;12.60;1.40;;;;;;;32.17;26.37;101300.76;107957;1284;21995;-59
2023/09/08 08:10:26;;;;;;;2.60;1.20;;;;;;;32.46;26.11;101294.19;107889;1288;21988;-59
2023/09/08 08:12:52;;;;;;;5.50;1.50;;;;;;;32.69;25.87;101297.39;107986;1288;22019;-59
2023/09/08 08:15:19;;;;;;;5.90;1.40;;;;;;;32.73;25.31;101297.85;108041;1288;21999;-69
2023/09/08 08:17:45;;;;;;;6.90;2.30;;;;;;;32.64;25.29;101292.95;108072;1288;21999;-59
2023/09/08 08:20:16;;;;;;;7.70;1.80;;;;;;;32.71;25.40;101292.29;108036;1286;22017;-69
2023/09/08 08:22:43;;;;;;;4.00;1.50;;;;;;;32.81;25.14;101293.39;108092;1288;21992;-58
2023/09/08 08:25:09;;;;;;;4.80;1.50;;;;;;;32.94;25.27;101288.49;108056;1283;21978;-60
2023/09/08 08:27:35;;;;;;;4.30;1.40;;;;;;;33.18;25.05;101290.88;107988;1280;21988;-68
2023/09/08 08:30:00;;;;;;;4.60;1.10;;;;;;;33.44;24.87;101292.46;107989;1280;21995;-69
2023/09/08 08:32:27;;;;;;;4.60;1.40;;;;;;;33.70;24.76;101290.52;108020;1286;22064;-59
2023/09/08 08:34:52;;;;;;;3.90;1.30;;;;;;;33.89;24.59;101290.33;108055;1283;22032;-69
2023/09/08 08:37:18;;;;;;;4.30;1.30;;;;;;;34.01;24.37;101290.77;108054;1288;21990;-59
2023/09/08 08:39:44;;;;;;;8.00;1.40;;;;;;;34.02;24.25;101285.41;107962;1283;22002;-69
2023/09/08 08:42:09;;;;;;;4.90;1.30;;;;;;;34.07;24.40;101289.45;108092;1283;21987;-70
2023/09/08 08:44:36;;;;;;;8.20;1.50;;;;;;;34.16;24.26;101290.61;108052;1287;25822;-59
2023/09/08 08:47:02;;;;;;;4.40;1.50;;;;;;;34.29;24.05;101290.82;107830;1288;22219;-67
2023/09/08 08:49:30;;;;;;;3.00;1.50;;;;;;;34.31;23.90;101290.37;107796;1288;21992;-68
2023/09/08 08:51:55;;;;;;;4.30;1.20;;;;;;;34.44;24.00;101288.58;107983;1283;21990;-69
2023/09/08 08:54:21;;;;;;;5.50;1.20;;;;;;;34.75;23.82;101293.71;107983;1282;21992;-58
2023/09/08 08:56:47;;;;;;;2.90;1.20;;;;;;;35.00;23.59;101293.59;107820;1276;23728;-58
2023/09/08 08:59:12;;;;;;;3.00;1.20;;;;;;;35.11;23.48;101284.43;107875;1288;22015;-59
2023/09/08 09:01:38;;;;;;;3.90;1.30;;;;;;;35.21;23.37;101283.41;107808;1286;22027;-58
2023/09/08 09:04:05;;;;;;;3.80;1.50;;;;;;;35.23;22.88;101283.56;107829;1286;22006;-59
2023/09/08 09:06:31;;;;;;;4.00;1.50;;;;;;;35.01;22.75;101285.06;108112;1283;21987;-68
2023/09/08 09:08:56;;;;;;;3.00;1.30;;;;;;;35.04;23.08;101281.98;107798;1288;22005;-58
2023/09/08 09:11:22;;;;;;;8.70;1.90;;;;;;;35.28;23.04;101278.27;107810;1288;22069;-68
2023/09/08 09:13:47;;;;;;;3.60;1.40;;;;;;;35.58;22.80;101274.27;108106;1288;22048;-59
2023/09/08 09:16:13;;;;;;;6.30;1.90;;;;;;;35.81;22.57;101273.16;108085;1283;21989;-68
2023/09/08 09:18:58;;;;;;;4.00;1.40;;;;;;;35.72;22.10;101269.77;108032;1288;22015;-58
2023/09/08 09:21:25;;;;;;;5.80;1.70;;;;;;;35.52;22.18;101269.64;108101;1283;21999;-57
2023/09/08 09:23:51;;;;;;;6.60;1.60;;;;;;;35.56;22.06;101271.26;108094;1288;21989;-67
2023/09/08 09:26:26;;;;;;;2.80;1.40;;;;;;;35.49;22.16;101271.42;108049;1286;22000;-68
2023/09/08 09:28:53;;;;;;;3.90;1.40;;;;;;;35.50;22.12;101267.16;108053;1283;22000;-57
2023/09/08 09:31:29;;;;;;;3.60;1.50;;;;;;;35.66;22.16;101261.98;108031;1288;21989;-67
2023/09/08 09:34:05;;;;;;;3.90;1.50;;;;;;;35.96;22.20;101259.72;109940;1286;21942;-58
2023/09/08 09:36:31;;;;;;;4.20;1.60;;;;;;;36.25;21.88;101255.20;109982;1283;21927;-69
2023/09/08 09:39:00;;;;;;;4.10;1.50;;;;;;;36.32;21.62;101250.37;108535;1288;23045;-69
2023/09/08 09:41:29;;;;;;;4.50;1.30;;;;;;;36.42;21.43;101246.74;107913;1288;21974;-68
2023/09/08 09:43:56;;;;;;;5.10;1.80;;;;;;;36.52;21.12;101246.27;108283;1284;22027;-67
2023/09/08 09:46:22;;;;;;;5.10;1.80;;;;;;;36.49;21.27;101243.52;108033;1288;21988;-68
2023/09/08 09:48:53;;;;;;;4.70;1.40;;;;;;;36.38;21.24;101244.30;108056;1283;21999;-58
2023/09/08 09:51:19;;;;;;;4.30;1.30;;;;;;;36.34;20.98;101245.81;108046;1286;22461;-67
2023/09/08 09:53:45;;;;;;;3.80;1.40;;;;;;;36.32;20.83;101241.97;108063;1283;22056;-58
2023/09/08 09:56:11;;;;;;;2.80;1.30;;;;;;;36.36;20.97;101237.39;108078;1283;22000;-68
2023/09/08 09:58:37;;;;;;;3.70;1.40;;;;;;;36.60;20.94;101231.67;107823;1288;21990;-67
2023/09/08 10:01:03;;;;;;;6.50;1.80;;;;;;;36.81;20.65;101225.94;108080;1283;21992;-68
2023/09/08 10:03:30;;;;;;;4.40;1.50;;;;;;;37.00;20.96;101224.16;107841;1286;22000;-68
2023/09/08 10:05:56;;;;;;;5.10;1.50;;;;;;;37.28;20.68;101227.07;108026;1276;21986;-68
2023/09/08 10:08:22;;;;;;;5.00;1.40;;;;;;;37.52;20.55;101229.45;108065;1283;21987;-67
2023/09/08 10:10:50;;;;;;;6.60;1.30;;;;;;;37.67;20.40;101226.91;107716;1286;21999;-58
2023/09/08 10:13:25;;;;;;;2.60;1.30;;;;;;;37.74;20.35;101224.98;107921;1288;21984;-58
2023/09/08 10:15:51;;;;;;;6.10;1.50;;;;;;;37.91;20.32;101219.77;108017;1286;22021;-59
2023/09/08 10:18:19;;;;;;;3.80;1.40;;;;;;;38.17;20.29;101216.92;108053;1286;22006;-59
2023/09/08 10:20:44;;;;;;;3.80;1.40;;;;;;;38.42;20.07;101216.23;107988;1288;22695;-61
2023/09/08 10:23:24;;;;;;;5.90;1.60;;;;;;;38.57;19.89;101216.98;108046;1288;23079;-67
2023/09/08 10:25:54;;;;;;;4.30;1.50;;;;;;;38.63;19.67;101218.90;107986;1286;23159;-67
2023/09/08 10:28:24;;;;;;;5.80;1.60;;;;;;;38.67;19.46;101214.11;108046;1287;23615;-61
2023/09/08 10:30:50;;;;;;;6.20;1.30;;;;;;;38.65;19.58;101214.19;107814;1289;23738;-68
2023/09/08 10:33:15;;;;;;;6.80;1.70;;;;;;;38.65;19.61;101213.98;107731;1289;22221;-66
2023/09/08 10:35:42;;;;;;;4.40;1.40;;;;;;;38.63;19.50;101214.11;107838;1289;22000;-67
2023/09/08 10:38:27;;;;;;;4.90;1.20;;;;;;;38.60;19.35;101213.49;107935;1284;22005;-67
2023/09/08 10:40:54;;;;;;;2.80;1.10;;;;;;;38.63;19.25;101208.79;107920;1289;21995;-68
2023/09/08 10:43:20;;;;;;;3.90;1.50;;;;;;;38.75;19.48;101206.21;107918;1289;21990;-66
2023/09/08 10:45:46;;;;;;;7.30;1.60;;;;;;;38.94;19.44;101202.48;107861;1279;22462;-67
2023/09/08 10:48:14;;;;;;;3.70;1.70;;;;;;;39.11;19.35;101199.20;107858;1289;22031;-67
2023/09/08 10:50:41;;;;;;;3.30;1.30;;;;;;;39.16;19.11;101193.80;107887;1286;22260;-68
2023/09/08 10:53:14;;;;;;;4.70;1.70;;;;;;;39.16;18.92;101194.56;107909;1286;22032;-58
2023/09/08 10:55:42;;;;;;;3.70;1.30;;;;;;;38.90;18.54;101196.97;107864;1289;21993;-69
2023/09/08 10:58:11;;;;;;;4.50;1.60;;;;;;;38.56;18.77;101196.33;107918;1280;22231;-68
2023/09/08 11:00:44;;;;;;;5.80;1.90;;;;;;;38.57;18.82;101195.33;107843;1289;21992;-68
2023/09/08 11:03:10;;;;;;;3.30;1.10;;;;;;;38.51;18.74;101192.17;107890;1289;21995;-57
2023/09/08 11:05:35;;;;;;;6.10;1.90;;;;;;;38.46;18.72;101182.69;107748;1289;21992;-67
2023/09/08 11:08:01;;;;;;;3.80;1.50;;;;;;;38.56;18.76;101180.79;107894;1289;22000;-58
2023/09/08 11:10:26;;;;;;;5.70;1.30;;;;;;;38.79;18.77;101172.45;107878;1289;22031;-69
2023/09/08 11:12:54;;;;;;;8.60;2.20;;;;;;;39.04;18.87;101169.15;108029;1283;22008;-58